Time;durP1;ratioP1;P1;durP2;ratioP2;P2;SDS_P1;SDS_P2;PMS_P1;PMS_P2;Temp;Humidity;BMP_temperature;BMP_pressure;BME280_temperature;BME280_humidity;BME280_pressure;Samples;Min_cycle;Max_cycle;Signal;HPM_P1;HPM_P2
2022/10/10 00:01:23;;;;;;;6.07;4.77;;;;;;;6.57;83.08;96453.73;1757288;81;21050;-64
2022/10/10 00:03:51;;;;;;;17.40;9.37;;;;;;;6.53;83.22;96453.27;1760047;81;21007;-64
2022/10/10 00:06:18;;;;;;;22.17;10.90;;;;;;;6.39;83.99;96453.09;1760145;81;21477;-64
2022/10/10 00:08:45;;;;;;;18.17;10.27;;;;;;;6.36;84.20;96462.25;1759672;81;21057;-64
2022/10/10 00:11:15;;;;;;;16.03;9.20;;;;;;;6.28;83.36;96459.53;1759779;81;21563;-64
2022/10/10 00:13:42;;;;;;;14.83;9.27;;;;;;;6.35;84.73;96462.22;1760076;81;21010;-64
2022/10/10 00:16:09;;;;;;;12.23;7.33;;;;;;;6.35;84.10;96463.13;1759818;81;21046;-64
2022/10/10 00:18:37;;;;;;;8.93;6.10;;;;;;;6.32;83.71;96466.99;1759909;81;21034;-64
2022/10/10 00:21:05;;;;;;;9.13;5.50;;;;;;;6.35;83.64;96472.70;1759775;81;21024;-64
2022/10/10 00:23:32;;;;;;;8.83;5.53;;;;;;;6.31;83.15;96468.30;1759915;81;21085;-65
2022/10/10 00:25:59;;;;;;;6.83;4.67;;;;;;;6.23;83.69;96474.77;1759816;81;21465;-65
2022/10/10 00:28:26;;;;;;;6.97;4.30;;;;;;;6.12;83.85;96478.53;1760020;81;21023;-65
2022/10/10 00:30:53;;;;;;;9.13;5.63;;;;;;;6.06;83.49;96475.84;1759467;81;21050;-64
2022/10/10 00:33:20;;;;;;;9.60;6.17;;;;;;;6.05;84.05;96477.59;1760201;81;20987;-64
2022/10/10 00:35:48;;;;;;;8.17;5.57;;;;;;;6.05;84.55;96471.48;1759780;81;21065;-64
2022/10/10 00:38:15;;;;;;;7.80;4.87;;;;;;;6.11;84.54;96471.55;1759895;81;21513;-64
2022/10/10 00:40:48;;;;;;;10.23;5.37;;;;;;;6.12;83.73;96468.49;1760016;81;21034;-64
2022/10/10 00:43:17;;;;;;;9.03;6.80;;;;;;;6.01;83.13;96467.92;1760021;81;21058;-64
2022/10/10 00:45:46;;;;;;;9.47;5.47;;;;;;;6.00;83.67;96470.55;1759764;81;21080;-64
2022/10/10 00:48:34;;;;;;;9.40;4.57;;;;;;;6.08;84.50;96467.58;1760040;81;20987;-64
2022/10/10 00:51:05;;;;;;;8.83;5.00;;;;;;;6.18;84.84;96464.22;1760118;81;20979;-64
2022/10/10 00:53:37;;;;;;;7.83;5.43;;;;;;;6.16;83.60;96459.38;1759613;81;21069;-64
2022/10/10 00:56:05;;;;;;;10.67;7.40;;;;;;;6.00;83.49;96461.38;1759914;81;21541;-64
2022/10/10 00:58:35;;;;;;;14.77;7.77;;;;;;;5.90;83.73;96457.72;1759879;81;21017;-64
2022/10/10 01:01:02;;;;;;;9.23;6.17;;;;;;;5.91;84.42;96452.05;1759921;81;21042;-65
2022/10/10 01:03:29;;;;;;;12.10;5.63;;;;;;;5.92;85.08;96462.55;1760201;81;21086;-65
2022/10/10 01:05:56;;;;;;;7.10;5.33;;;;;;;5.94;84.71;96450.36;1759879;81;21030;-65
2022/10/10 01:08:22;;;;;;;8.77;4.97;;;;;;;6.01;84.33;96450.02;1760131;81;21544;-65
2022/10/10 01:10:57;;;;;;;8.60;4.87;;;;;;;6.01;84.13;96453.95;1760012;81;21030;-64
2022/10/10 01:13:41;;;;;;;11.43;5.83;;;;;;;6.03;83.96;96452.23;1759226;81;21528;-64
2022/10/10 01:16:44;;;;;;;9.33;6.10;;;;;;;6.08;84.09;96454.48;1759452;81;21006;-64
2022/10/10 01:19:25;;;;;;;11.17;5.97;;;;;;;6.10;83.54;96451.86;1760028;81;21536;-64
2022/10/10 01:22:22;;;;;;;8.87;5.90;;;;;;;6.05;84.54;96455.33;1760018;81;21026;-64
2022/10/10 01:25:15;;;;;;;9.37;6.37;;;;;;;6.04;83.62;96452.67;1760102;81;21027;-64
2022/10/10 01:27:45;;;;;;;10.77;6.23;;;;;;;6.16;84.36;96446.72;1760213;81;21078;-64
2022/10/10 01:30:19;;;;;;;6.80;5.07;;;;;;;6.14;84.67;96446.69;1760093;81;21038;-64
2022/10/10 01:32:54;;;;;;;8.53;5.27;;;;;;;6.01;82.24;96456.58;1760013;81;21066;-64
2022/10/10 01:35:32;;;;;;;9.63;4.93;;;;;;;5.87;83.16;96449.80;1759971;81;21046;-64
2022/10/10 01:38:37;;;;;;;6.27;5.43;;;;;;;5.75;83.08;96453.58;1759723;81;21016;-64
2022/10/10 01:41:21;;;;;;;7.00;5.03;;;;;;;5.67;83.27;96453.88;1759849;81;21015;-65
2022/10/10 01:43:57;;;;;;;15.23;6.63;;;;;;;5.53;83.61;96449.77;1748882;81;21015;-64
2022/10/10 01:46:24;;;;;;;12.10;7.03;;;;;;;5.57;83.84;96452.46;1759967;81;21074;-64
2022/10/10 01:48:55;;;;;;;15.97;7.10;;;;;;;5.63;84.13;96454.28;1760270;81;21038;-65
2022/10/10 01:51:54;;;;;;;11.90;6.90;;;;;;;5.74;84.32;96449.19;1760168;81;21524;-65
2022/10/10 01:54:47;;;;;;;9.60;5.70;;;;;;;5.78;83.94;96449.25;1700752;81;21019;-64
2022/10/10 01:57:43;;;;;;;9.73;6.10;;;;;;;5.76;83.90;96460.12;1760069;81;21541;-64
2022/10/10 02:00:16;;;;;;;6.70;6.00;;;;;;;5.69;83.50;96454.35;1674218;81;21541;-64
2022/10/10 02:02:56;;;;;;;6.90;5.50;;;;;;;5.63;83.98;96449.91;1760351;81;21536;-64
2022/10/10 02:05:37;;;;;;;7.70;5.50;;;;;;;5.55;83.76;96451.98;1760150;81;21066;-64
2022/10/10 02:08:18;;;;;;;9.07;5.80;;;;;;;5.51;84.46;96451.48;1760176;81;21080;-64
2022/10/10 02:10:53;;;;;;;7.93;5.90;;;;;;;5.52;84.63;96442.35;1760777;81;21465;-64
2022/10/10 02:13:24;;;;;;;11.20;6.10;;;;;;;5.54;84.89;96438.42;1760193;81;21078;-64
2022/10/10 02:15:55;;;;;;;11.07;6.93;;;;;;;5.59;84.69;96435.05;1734317;81;21025;-64
2022/10/10 02:18:26;;;;;;;11.20;7.83;;;;;;;5.52;84.11;96443.66;1760315;81;21066;-65
2022/10/10 02:20:53;;;;;;;6.87;5.53;;;;;;;5.46;85.06;96442.24;1760394;81;21058;-65
2022/10/10 02:23:22;;;;;;;13.80;5.73;;;;;;;5.51;85.17;96439.27;1759779;81;21509;-65
2022/10/10 02:25:54;;;;;;;8.63;5.37;;;;;;;5.59;85.31;96441.99;1760275;81;21003;-65
2022/10/10 02:28:32;;;;;;;9.65;6.20;;;;;;;5.64;84.95;96439.91;1734578;81;21494;-65
2022/10/10 02:31:04;;;;;;;12.73;6.83;;;;;;;5.70;85.29;96450.02;1758760;81;20987;-65
2022/10/10 02:33:42;;;;;;;7.27;5.03;;;;;;;5.65;84.10;96442.09;1759895;81;21522;-65
2022/10/10 02:36:11;;;;;;;7.97;5.40;;;;;;;5.69;84.57;96448.23;1760101;81;21006;-64
2022/10/10 02:38:38;;;;;;;8.57;5.10;;;;;;;5.73;84.34;96447.00;1760219;81;21011;-64
2022/10/10 02:41:08;;;;;;;7.00;5.07;;;;;;;5.77;84.45;96450.53;1760159;81;20971;-64
2022/10/10 02:43:36;;;;;;;8.93;5.50;;;;;;;5.86;84.69;96450.66;1759982;81;21070;-64
2022/10/10 02:46:08;;;;;;;8.43;4.73;;;;;;;5.83;84.24;96448.02;1759787;81;21062;-64
2022/10/10 02:48:35;;;;;;;8.90;5.00;;;;;;;5.79;84.16;96447.07;1760444;81;20991;-64
2022/10/10 02:51:01;;;;;;;6.20;4.47;;;;;;;5.74;84.70;96450.49;1734800;81;21022;-64
2022/10/10 02:53:28;;;;;;;8.27;4.30;;;;;;;5.70;84.37;96448.71;1759846;81;21015;-64
2022/10/10 02:55:54;;;;;;;9.00;4.63;;;;;;;5.65;83.60;96448.64;1760344;81;21002;-64
2022/10/10 02:58:22;;;;;;;8.73;5.47;;;;;;;5.68;84.19;96451.73;1759580;81;21057;-64
2022/10/10 03:00:48;;;;;;;9.00;6.57;;;;;;;5.69;84.76;96450.42;1759940;81;20995;-64
2022/10/10 03:03:15;;;;;;;8.83;6.37;;;;;;;5.70;84.77;96451.33;1758343;81;21062;-64
2022/10/10 03:05:42;;;;;;;12.57;6.70;;;;;;;5.67;84.43;96457.41;1757070;81;21066;-65
2022/10/10 03:08:08;;;;;;;9.67;6.70;;;;;;;5.61;84.40;96455.55;1757379;81;20999;-65
2022/10/10 03:10:35;;;;;;;9.60;5.90;;;;;;;5.58;84.83;96453.33;1756773;82;21058;-65
2022/10/10 03:13:02;;;;;;;10.00;6.50;;;;;;;5.58;85.09;96454.20;1757354;81;21070;-65
2022/10/10 03:15:30;;;;;;;7.70;6.20;;;;;;;5.55;85.24;96454.61;1756789;82;21030;-64
2022/10/10 03:17:56;;;;;;;11.80;6.40;;;;;;;5.52;85.48;96451.52;1757033;82;21540;-65
2022/10/10 03:20:23;;;;;;;11.00;6.20;;;;;;;5.48;84.75;96461.91;1757227;82;21007;-64
2022/10/10 03:22:49;;;;;;;12.00;6.60;;;;;;;5.46;84.58;96451.84;1757269;81;20983;-64
2022/10/10 03:25:16;;;;;;;9.77;6.77;;;;;;;5.48;84.89;96452.75;1757024;81;21027;-64
2022/10/10 03:27:43;;;;;;;9.53;6.43;;;;;;;5.50;84.68;96455.84;1756875;82;20987;-64
2022/10/10 03:30:11;;;;;;;10.10;5.97;;;;;;;5.48;84.93;96458.86;1757085;81;20999;-63
2022/10/10 03:32:37;;;;;;;15.03;7.27;;;;;;;5.39;84.48;96454.38;1757045;81;21011;-64
2022/10/10 03:35:05;;;;;;;10.53;7.23;;;;;;;5.35;84.40;96460.41;1757433;82;20995;-64
2022/10/10 03:37:32;;;;;;;10.70;6.80;;;;;;;5.33;85.11;96461.24;1757209;82;21067;-64
2022/10/10 03:39:58;;;;;;;9.30;6.87;;;;;;;5.27;84.85;96459.85;1757126;81;21011;-65
2022/10/10 03:42:25;;;;;;;8.80;5.93;;;;;;;5.20;85.21;96463.66;1756993;82;21083;-64
2022/10/10 03:44:52;;;;;;;9.40;7.67;;;;;;;5.12;85.08;96467.89;1757230;81;21030;-64
2022/10/10 03:47:18;;;;;;;11.47;7.00;;;;;;;5.12;85.10;96462.66;1756920;81;21007;-65
2022/10/10 03:49:45;;;;;;;10.40;6.63;;;;;;;5.15;85.79;96468.38;1757080;81;21593;-65
2022/10/10 03:52:12;;;;;;;7.63;5.47;;;;;;;5.19;85.60;96463.63;1756998;81;21027;-65
2022/10/10 03:54:38;;;;;;;11.70;6.20;;;;;;;5.23;85.51;96471.98;1757038;82;20995;-64
2022/10/10 03:57:05;;;;;;;8.20;5.40;;;;;;;5.18;85.14;96465.36;1756881;81;21022;-65
2022/10/10 03:59:32;;;;;;;11.83;5.80;;;;;;;5.17;85.05;96471.91;1756961;81;21011;-65
2022/10/10 04:01:59;;;;;;;8.97;5.10;;;;;;;5.24;85.51;96461.99;1756959;81;21042;-64
2022/10/10 04:04:25;;;;;;;10.03;6.57;;;;;;;5.26;86.02;96464.17;1756739;81;21042;-64
2022/10/10 04:06:52;;;;;;;10.63;5.90;;;;;;;5.22;84.97;96461.08;1756645;81;21505;-64
2022/10/10 04:09:18;;;;;;;9.47;5.20;;;;;;;5.23;85.42;96462.83;1757249;82;21039;-64
2022/10/10 04:11:45;;;;;;;6.40;5.00;;;;;;;5.19;85.23;96464.53;1756988;81;21015;-64
2022/10/10 04:14:11;;;;;;;8.33;4.83;;;;;;;5.23;85.43;96464.57;1756994;81;21042;-64
2022/10/10 04:16:38;;;;;;;8.60;5.40;;;;;;;5.20;85.05;96468.89;1757229;82;21019;-64
2022/10/10 04:19:04;;;;;;;13.73;5.00;;;;;;;5.18;85.29;96470.59;1757255;81;20987;-64
2022/10/10 04:21:31;;;;;;;6.73;4.70;;;;;;;5.17;85.33;96476.70;1757168;82;21070;-64
2022/10/10 04:23:57;;;;;;;7.77;4.70;;;;;;;5.15;86.08;96477.09;1757201;82;21015;-64
2022/10/10 04:26:24;;;;;;;8.33;4.80;;;;;;;5.15;85.28;96465.76;1756825;82;21517;-64
2022/10/10 04:28:51;;;;;;;7.27;5.30;;;;;;;5.17;86.02;96475.83;1757028;81;20964;-64
2022/10/10 04:31:17;;;;;;;19.30;7.63;;;;;;;5.16;85.84;96472.73;1756711;82;20988;-64
2022/10/10 04:33:44;;;;;;;13.13;7.57;;;;;;;5.18;85.87;96471.91;1757217;81;21023;-64
2022/10/10 04:36:10;;;;;;;18.93;11.07;;;;;;;5.19;85.74;96471.07;1756486;81;21077;-63
2022/10/10 04:38:37;;;;;;;14.83;9.03;;;;;;;5.27;86.30;96472.94;1722734;81;21038;-66
2022/10/10 04:41:04;;;;;;;17.33;10.77;;;;;;;5.41;86.23;96471.39;1717406;83;21469;-65
2022/10/10 04:43:30;;;;;;;14.40;9.47;;;;;;;5.47;84.94;96474.52;1721030;83;20999;-66
2022/10/10 04:45:57;;;;;;;12.07;7.10;;;;;;;5.41;84.73;96475.31;1692794;85;21099;-67
2022/10/10 04:48:24;;;;;;;8.93;6.73;;;;;;;5.40;84.52;96473.57;1694594;84;21486;-66
2022/10/10 04:50:55;;;;;;;8.77;6.97;;;;;;;5.30;84.45;96475.59;1693766;84;21055;-65
2022/10/10 04:53:24;;;;;;;14.30;8.63;;;;;;;5.24;84.68;96478.09;1693590;84;20979;-65
2022/10/10 04:55:51;;;;;;;14.17;8.17;;;;;;;5.25;85.57;96475.52;1693700;84;21051;-65
2022/10/10 04:58:18;;;;;;;10.87;6.80;;;;;;;5.24;85.31;96477.69;1693621;84;21525;-65
2022/10/10 05:00:45;;;;;;;10.73;7.40;;;;;;;5.13;84.64;96476.61;1693842;84;21581;-65
2022/10/10 05:03:12;;;;;;;13.00;9.97;;;;;;;5.06;85.78;96479.98;1673272;85;21074;-73
2022/10/10 05:05:39;;;;;;;18.10;8.33;;;;;;;5.09;85.55;96482.64;1693675;84;21066;-68
2022/10/10 05:08:06;;;;;;;10.20;7.20;;;;;;;5.07;85.72;96481.33;1715717;83;21576;-67
2022/10/10 05:10:40;;;;;;;15.07;7.87;;;;;;;5.09;85.63;96486.16;1716198;83;20999;-67
2022/10/10 05:13:10;;;;;;;11.50;7.67;;;;;;;5.07;85.79;96482.63;1716270;83;21023;-76
2022/10/10 05:15:37;;;;;;;14.37;10.07;;;;;;;5.12;85.61;96484.90;1716145;84;21087;-72
2022/10/10 05:18:04;;;;;;;15.13;11.07;;;;;;;5.15;85.79;96486.69;1715749;84;21525;-71
2022/10/10 05:20:32;;;;;;;17.03;11.27;;;;;;;5.22;86.58;96480.70;1716281;83;20971;-73
2022/10/10 05:23:00;;;;;;;51.03;28.53;;;;;;;5.24;85.75;96475.47;1716403;84;21035;-77
2022/10/10 05:25:26;;;;;;;45.07;25.63;;;;;;;5.29;86.50;96482.97;1716222;83;21023;-71
2022/10/10 05:27:53;;;;;;;35.50;21.83;;;;;;;5.33;86.76;96474.33;1716039;83;21151;-73
2022/10/10 05:30:20;;;;;;;37.23;22.10;;;;;;;5.38;86.67;96478.77;1716267;84;20987;-67
2022/10/10 05:32:47;;;;;;;34.63;17.27;;;;;;;5.46;86.50;96483.25;1716446;84;21012;-68
2022/10/10 05:35:13;;;;;;;28.77;15.27;;;;;;;5.54;86.64;96484.23;1716341;83;20967;-71
2022/10/10 05:37:40;;;;;;;27.47;17.60;;;;;;;5.62;86.80;96480.02;1715998;84;21074;-69
2022/10/10 05:40:08;;;;;;;24.67;15.27;;;;;;;5.73;86.78;96481.05;1716413;84;20983;-70
2022/10/10 05:42:35;;;;;;;16.33;11.63;;;;;;;5.88;86.82;96475.14;1716039;84;21027;-68
2022/10/10 05:45:01;;;;;;;35.73;22.77;;;;;;;6.05;86.81;96482.84;1716090;84;21055;-73
2022/10/10 05:47:28;;;;;;;33.10;19.83;;;;;;;6.22;86.53;96480.84;1715964;83;21074;-68
2022/10/10 05:49:55;;;;;;;26.53;15.60;;;;;;;6.39;86.22;96479.31;1716291;83;21015;-67
2022/10/10 05:52:21;;;;;;;13.23;10.30;;;;;;;6.45;85.02;96476.78;1715612;83;21046;-69
2022/10/10 05:54:48;;;;;;;19.00;10.43;;;;;;;6.53;85.59;96485.14;1715174;84;21130;-69
2022/10/10 05:57:15;;;;;;;46.93;25.37;;;;;;;6.68;85.86;96484.90;1709953;84;21058;-68
2022/10/10 05:59:41;;;;;;;50.33;30.07;;;;;;;6.77;85.40;96493.72;1705474;83;21039;-68
2022/10/10 06:02:08;;;;;;;13.00;9.90;;;;;;;6.90;85.82;96486.02;1706380;84;21114;-73
2022/10/10 06:04:35;;;;;;;19.03;11.77;;;;;;;7.11;86.03;96485.33;1709591;83;21007;-69
2022/10/10 06:07:01;;;;;;;30.37;23.20;;;;;;;7.26;85.62;96489.84;1710581;84;20995;-69
2022/10/10 06:09:28;;;;;;;16.63;11.67;;;;;;;7.30;84.91;96480.23;1708804;84;21083;-68
2022/10/10 06:11:54;;;;;;;12.00;8.87;;;;;;;7.40;85.17;96485.13;1709094;83;20979;-70
2022/10/10 06:14:21;;;;;;;12.07;10.50;;;;;;;7.56;85.55;96483.95;1700267;84;21035;-66
2022/10/10 06:16:48;;;;;;;14.20;9.40;;;;;;;7.72;85.32;96480.98;1718297;83;21011;-67
2022/10/10 06:19:14;;;;;;;9.87;8.37;;;;;;;7.84;85.15;96473.63;1692560;85;21024;-67
2022/10/10 06:21:41;;;;;;;12.30;8.33;;;;;;;7.94;84.45;96478.06;1688199;85;21492;-64
2022/10/10 06:24:09;;;;;;;8.53;7.63;;;;;;;8.06;84.45;96473.30;1693036;84;21506;-67
2022/10/10 06:26:36;;;;;;;9.73;7.23;;;;;;;8.16;83.94;96475.54;1712049;84;21024;-67
2022/10/10 06:29:03;;;;;;;11.23;8.40;;;;;;;8.20;83.50;96478.64;1716409;83;21019;-64
2022/10/10 06:31:30;;;;;;;11.97;9.73;;;;;;;8.26;83.57;96479.97;1715722;83;21070;-70
2022/10/10 06:33:57;;;;;;;11.60;8.00;;;;;;;8.36;83.51;96478.26;1715879;83;21014;-66
2022/10/10 06:36:23;;;;;;;11.33;8.90;;;;;;;8.44;83.63;96472.63;1716311;83;21010;-65
2022/10/10 06:38:50;;;;;;;10.93;8.07;;;;;;;8.56;83.55;96476.61;1716056;84;21067;-66
2022/10/10 06:41:16;;;;;;;20.10;18.00;;;;;;;8.66;83.39;96480.16;1716271;84;21035;-65
2022/10/10 06:43:43;;;;;;;11.53;9.53;;;;;;;8.74;83.23;96478.86;1716434;83;21039;-68
2022/10/10 06:46:10;;;;;;;23.57;21.13;;;;;;;8.84;83.19;96481.55;1716553;83;21003;-66
2022/10/10 06:48:37;;;;;;;24.53;21.97;;;;;;;8.92;83.28;96481.97;1715494;84;21043;-67
2022/10/10 06:51:08;;;;;;;14.10;10.50;;;;;;;8.98;83.05;96483.32;1716210;84;21019;-66
2022/10/10 06:53:35;;;;;;;9.27;8.27;;;;;;;9.09;83.18;96477.17;1686015;84;21007;-64
2022/10/10 06:56:03;;;;;;;8.20;7.33;;;;;;;9.18;83.18;96476.77;1716224;83;21019;-66
2022/10/10 06:58:31;;;;;;;11.90;9.47;;;;;;;9.34;83.76;96474.56;1716283;83;21020;-68
2022/10/10 07:01:01;;;;;;;9.73;7.87;;;;;;;9.52;83.55;96468.42;1716541;84;21051;-68
2022/10/10 07:03:29;;;;;;;10.33;8.80;;;;;;;9.71;83.42;96475.44;1716045;83;21031;-71
2022/10/10 07:05:59;;;;;;;10.40;6.20;;;;;;;9.89;83.28;96473.21;1716224;84;21003;-71
2022/10/10 07:08:27;;;;;;;15.75;9.80;;;;;;;10.08;82.83;96475.80;1686215;84;21071;-66
2022/10/10 07:10:54;;;;;;;8.30;6.65;;;;;;;10.27;82.78;96475.32;1715878;84;21457;-67
2022/10/10 07:13:21;;;;;;;13.03;7.70;;;;;;;10.45;82.58;96473.09;1715806;83;21052;-67
2022/10/10 07:15:48;;;;;;;15.03;8.03;;;;;;;10.65;82.77;96470.36;1716438;84;20991;-67
2022/10/10 07:18:17;;;;;;;11.20;6.22;;;;;;;10.84;81.90;96475.98;1716342;83;21015;-67
2022/10/10 07:20:44;;;;;;;11.55;7.12;;;;;;;11.03;81.92;96475.42;1716154;84;21030;-67
2022/10/10 07:23:10;;;;;;;15.43;6.92;;;;;;;11.21;81.44;96474.42;1715865;83;21134;-67
2022/10/10 07:25:40;;;;;;;9.78;6.85;;;;;;;11.37;80.21;96474.76;1716298;84;21016;-73
2022/10/10 07:28:08;;;;;;;11.63;9.90;;;;;;;11.53;80.77;96471.54;1716468;84;21066;-72
2022/10/10 07:30:42;;;;;;;136.50;70.28;;;;;;;11.72;79.88;96472.27;1716018;84;20975;-67
2022/10/10 07:33:11;;;;;;;49.63;32.85;;;;;;;11.83;78.87;96469.52;1716139;83;21031;-67
2022/10/10 07:35:37;;;;;;;108.75;78.45;;;;;;;11.96;78.86;96471.63;1716580;84;21007;-73
2022/10/10 07:38:05;;;;;;;15.93;10.00;;;;;;;12.06;78.28;96468.00;1716383;83;20980;-69
2022/10/10 07:40:31;;;;;;;17.30;10.55;;;;;;;12.21;78.96;96462.54;1713854;83;20976;-72
2022/10/10 07:43:01;;;;;;;14.87;8.83;;;;;;;12.35;77.79;96467.69;1710842;83;20997;-71
2022/10/10 07:45:27;;;;;;;12.70;7.53;;;;;;;12.42;76.54;96464.51;1706897;84;21043;-73
2022/10/10 07:47:54;;;;;;;9.03;7.00;;;;;;;12.47;74.98;96465.33;1710371;84;21043;-74
2022/10/10 07:50:23;;;;;;;9.58;6.37;;;;;;;12.51;75.37;96464.41;1716142;83;21095;-77
2022/10/10 07:52:49;;;;;;;10.03;6.33;;;;;;;12.58;75.45;96466.09;1706026;81;20980;-70
2022/10/10 07:55:16;;;;;;;13.65;7.40;;;;;;;12.62;74.11;96469.56;1711423;84;21063;-66
2022/10/10 07:57:43;;;;;;;8.65;6.97;;;;;;;12.64;74.47;96465.13;1713963;84;20993;-68
2022/10/10 08:00:12;;;;;;;11.28;6.42;;;;;;;12.74;74.82;96468.08;1715852;84;21082;-70
2022/10/10 08:02:39;;;;;;;9.45;6.12;;;;;;;12.89;74.74;96462.58;1716282;83;20999;-70
2022/10/10 08:05:07;;;;;;;12.63;6.78;;;;;;;12.99;74.52;96452.28;1716011;84;21039;-69
2022/10/10 08:07:34;;;;;;;6.70;5.58;;;;;;;13.10;73.70;96453.89;1741208;82;21023;-72
2022/10/10 08:10:01;;;;;;;12.70;6.08;;;;;;;13.20;73.29;96447.56;1716014;83;21086;-69
2022/10/10 08:12:28;;;;;;;9.18;6.40;;;;;;;13.30;71.89;96449.66;1715959;83;20997;-69
2022/10/10 08:14:55;;;;;;;12.45;7.08;;;;;;;13.34;71.93;96447.39;1715625;83;21114;-71
2022/10/10 08:17:21;;;;;;;12.93;8.63;;;;;;;13.40;72.25;96445.50;1715174;83;21062;-69
2022/10/10 08:19:48;;;;;;;12.50;10.60;;;;;;;13.51;72.13;96451.11;1715450;83;21099;-68
2022/10/10 08:22:15;;;;;;;9.85;6.75;;;;;;;13.58;71.22;96454.96;1715617;83;21043;-68
2022/10/10 08:24:41;;;;;;;7.05;5.72;;;;;;;13.68;72.01;96446.37;1716094;83;21054;-69
2022/10/10 08:27:08;;;;;;;8.90;6.03;;;;;;;13.81;72.03;96446.60;1716111;84;21485;-67
2022/10/10 08:29:35;;;;;;;7.20;5.83;;;;;;;13.89;70.94;96441.63;1716428;83;20995;-68
2022/10/10 08:32:02;;;;;;;6.75;6.00;;;;;;;13.90;70.87;96443.36;1715496;84;21169;-68
2022/10/10 08:34:28;;;;;;;9.03;5.83;;;;;;;14.05;71.47;96440.42;1716042;83;21423;-70
2022/10/10 08:36:55;;;;;;;8.55;5.53;;;;;;;14.17;70.12;96438.86;1715984;83;21015;-68
2022/10/10 08:39:22;;;;;;;12.07;6.28;;;;;;;14.24;69.58;96443.16;1716296;83;21079;-70
2022/10/10 08:41:58;;;;;;;8.90;6.55;;;;;;;14.33;69.78;96436.77;1715749;83;21004;-68
2022/10/10 08:44:45;;;;;;;7.45;5.97;;;;;;;14.40;70.09;96441.52;1685676;84;21544;-69
2022/10/10 08:47:23;;;;;;;9.18;6.47;;;;;;;14.52;69.35;96442.60;1716409;83;21106;-68
2022/10/10 08:50:02;;;;;;;9.30;8.20;;;;;;;14.59;69.56;96446.02;1716031;83;21027;-80
2022/10/10 08:52:47;;;;;;;9.13;6.20;;;;;;;14.70;69.32;96447.56;1714551;84;21565;-76
2022/10/10 08:55:32;;;;;;;7.95;6.40;;;;;;;14.89;70.11;96440.08;1715921;83;21520;-70
2022/10/10 08:58:13;;;;;;;8.48;6.25;;;;;;;15.05;68.62;96430.44;1716032;83;21081;-72
2022/10/10 09:00:47;;;;;;;7.85;6.10;;;;;;;15.15;68.67;96438.61;1715927;83;21020;-66
2022/10/10 09:03:28;;;;;;;7.08;6.00;;;;;;;15.14;66.87;96437.75;1715797;84;21055;-67
2022/10/10 09:06:22;;;;;;;7.62;6.53;;;;;;;15.20;67.37;96442.04;1716526;82;21004;-66
2022/10/10 09:09:15;;;;;;;11.38;6.10;;;;;;;15.22;67.21;96430.92;1715702;83;21059;-67
2022/10/10 09:12:43;;;;;;;11.63;8.05;;;;;;;15.40;67.86;96436.72;1716032;84;21094;-66
2022/10/10 09:15:35;;;;;;;10.63;6.17;;;;;;;15.48;65.49;96435.61;1716068;83;21099;-66
2022/10/10 09:18:21;;;;;;;6.85;6.15;;;;;;;15.51;66.07;96435.98;1716472;83;21007;-67
2022/10/10 09:20:56;;;;;;;10.08;5.85;;;;;;;15.51;66.07;96435.98;1716599;83;21031;-67
2022/10/10 09:23:50;;;;;;;7.10;5.78;;;;;;;15.61;66.57;96429.52;1716500;82;21580;-66
2022/10/10 09:26:30;;;;;;;11.68;6.50;;;;;;;15.72;64.38;96434.59;1581814;88;21154;-66
2022/10/10 09:29:08;;;;;;;8.85;6.25;;;;;;;15.77;64.44;96434.92;1693477;84;21039;-67
2022/10/10 09:31:39;;;;;;;7.97;6.30;;;;;;;15.84;64.87;96437.41;1708180;84;21068;-68
2022/10/10 09:34:18;;;;;;;8.83;6.53;;;;;;;15.78;63.40;96437.12;1715211;84;21035;-66
2022/10/10 09:36:47;;;;;;;6.78;5.95;;;;;;;15.86;64.26;96436.46;1715121;84;21675;-67
2022/10/10 09:39:22;;;;;;;7.83;5.95;;;;;;;15.98;63.42;96437.94;1716155;83;21003;-67
2022/10/10 09:42:03;;;;;;;11.03;6.03;;;;;;;16.08;63.66;96438.57;1716287;84;20988;-67
2022/10/10 09:44:31;;;;;;;8.68;5.67;;;;;;;16.13;63.21;96440.66;1715922;84;21600;-67
2022/10/10 09:46:59;;;;;;;8.05;5.60;;;;;;;16.21;63.16;96439.98;1716621;83;20964;-67
2022/10/10 09:49:26;;;;;;;6.33;5.58;;;;;;;16.26;61.39;96432.73;1715982;84;21027;-67
2022/10/10 09:51:53;;;;;;;7.45;5.40;;;;;;;16.36;62.23;96437.36;1715136;84;21070;-66
2022/10/10 09:54:21;;;;;;;7.83;5.78;;;;;;;16.36;60.55;96434.69;1715671;84;21051;-67
2022/10/10 09:56:57;;;;;;;8.88;5.85;;;;;;;16.42;60.28;96434.04;1716151;83;21090;-66
2022/10/10 09:59:44;;;;;;;6.90;5.65;;;;;;;16.48;61.50;96435.68;1715612;83;21110;-67
2022/10/10 10:02:25;;;;;;;6.80;5.40;;;;;;;16.63;61.55;96438.34;1716232;83;21078;-66
2022/10/10 10:04:53;;;;;;;8.85;5.40;;;;;;;16.73;60.97;96429.62;1716006;83;21074;-67
2022/10/10 10:07:29;;;;;;;8.60;5.20;;;;;;;16.86;61.29;96435.05;1716550;84;21505;-67
2022/10/10 10:10:19;;;;;;;9.93;5.72;;;;;;;16.95;60.31;96428.09;1716191;83;21549;-67
2022/10/10 10:12:47;;;;;;;11.00;6.37;;;;;;;17.08;60.59;96425.48;1716459;83;20991;-67
2022/10/10 10:15:21;;;;;;;7.17;5.78;;;;;;;17.19;60.85;96429.14;1716609;84;21015;-67
2022/10/10 10:18:24;;;;;;;8.25;6.35;;;;;;;17.21;59.94;96417.08;1716215;83;21139;-66
2022/10/10 10:21:08;;;;;;;8.90;6.08;;;;;;;17.37;60.14;96417.02;1716257;84;21040;-67
2022/10/10 10:23:55;;;;;;;6.75;5.45;;;;;;;17.42;59.67;96418.20;1716165;84;21032;-67
2022/10/10 10:26:33;;;;;;;8.40;6.20;;;;;;;17.68;59.75;96408.86;1716858;83;21541;-67
2022/10/10 10:28:59;;;;;;;6.67;5.87;;;;;;;18.10;59.38;96407.48;1716406;84;21536;-67
2022/10/10 10:31:52;;;;;;;8.00;5.60;;;;;;;18.45;57.37;96402.69;1716302;83;21114;-67
2022/10/10 10:34:57;;;;;;;7.97;5.83;;;;;;;18.74;56.80;96395.75;1716113;84;21027;-67
2022/10/10 10:37:45;;;;;;;10.15;6.17;;;;;;;19.24;55.45;96394.28;1713262;84;21051;-67
2022/10/10 10:40:41;;;;;;;8.70;6.30;;;;;;;19.58;52.35;96394.27;1716563;83;21034;-67
2022/10/10 10:44:04;;;;;;;10.93;6.67;;;;;;;19.79;51.83;96390.31;1716779;84;21054;-67
2022/10/10 10:46:59;;;;;;;8.80;6.05;;;;;;;20.27;53.10;96390.47;1716416;83;20984;-67
2022/10/10 10:49:37;;;;;;;7.30;6.00;;;;;;;20.73;52.18;96381.23;1716238;83;21027;-67
2022/10/10 10:52:42;;;;;;;7.55;5.72;;;;;;;20.98;50.11;96372.05;1716441;84;21049;-67
2022/10/10 10:55:39;;;;;;;10.03;5.97;;;;;;;21.16;50.12;96370.30;1716251;83;21048;-67
2022/10/10 10:58:40;;;;;;;8.13;6.03;;;;;;;21.51;49.93;96369.08;1716639;84;21454;-67
2022/10/10 11:01:24;;;;;;;13.93;5.65;;;;;;;21.49;48.22;96369.14;1692587;84;21525;-67
2022/10/10 11:04:21;;;;;;;8.68;5.60;;;;;;;21.69;47.57;96364.13;1716267;82;20987;-68
2022/10/10 11:07:02;;;;;;;11.43;6.40;;;;;;;22.02;48.37;96365.59;1715986;84;21505;-67
2022/10/10 11:09:35;;;;;;;8.68;5.87;;;;;;;22.32;46.43;96355.53;1721110;83;21050;-67
2022/10/10 11:12:13;;;;;;;9.38;5.83;;;;;;;22.37;46.04;96353.47;1724479;83;21102;-67
2022/10/10 11:14:51;;;;;;;9.33;6.03;;;;;;;22.65;46.49;96344.80;1724325;82;21003;-67
2022/10/10 11:17:29;;;;;;;11.28;5.75;;;;;;;23.03;47.17;96349.92;1724110;83;21035;-67
2022/10/10 11:20:01;;;;;;;12.00;5.92;;;;;;;23.03;45.03;96351.72;1724634;82;21027;-67
2022/10/10 11:22:37;;;;;;;;;;;;;;;22.87;43.69;96347.64;1727034;82;21026;-67
2022/10/10 11:25:22;;;;;;;9.95;6.08;;;;;;;23.11;43.50;96348.14;1724399;82;20132;-67
2022/10/10 11:28:11;;;;;;;7.75;6.12;;;;;;;23.38;44.04;96344.81;1724242;83;21112;-67
2022/10/10 11:30:46;;;;;;;7.97;5.75;;;;;;;23.78;43.82;96339.83;1724303;82;21007;-67
2022/10/10 11:33:27;;;;;;;9.90;5.45;;;;;;;23.96;44.24;96343.66;1724780;81;21552;-67
2022/10/10 11:36:19;;;;;;;8.40;5.72;;;;;;;24.13;42.35;96334.53;1724141;83;21022;-67
2022/10/10 11:38:57;;;;;;;9.73;6.20;;;;;;;24.26;41.75;96323.00;1724594;82;21022;-67
2022/10/10 11:41:35;;;;;;;10.50;6.50;;;;;;;24.38;41.30;96327.64;1720072;83;21003;-67
2022/10/10 11:44:36;;;;;;;9.83;5.95;;;;;;;24.50;42.72;96328.76;1724215;83;21026;-67
2022/10/10 11:47:15;;;;;;;8.25;5.22;;;;;;;24.61;40.36;96321.70;1724683;82;21553;-67
2022/10/10 11:50:02;;;;;;;12.03;5.53;;;;;;;24.80;41.15;96316.52;1712462;83;21043;-68
2022/10/10 11:52:49;;;;;;;10.88;5.90;;;;;;;25.24;40.81;96311.44;1724315;83;21062;-68
2022/10/10 11:55:25;;;;;;;14.18;10.82;;;;;;;25.60;39.87;96311.30;1724323;82;21071;-68
2022/10/10 11:58:09;;;;;;;8.28;6.60;;;;;;;25.63;39.44;96302.53;1724211;83;21050;-67
2022/10/10 12:00:47;;;;;;;8.05;6.00;;;;;;;25.50;39.38;96300.24;1724486;82;21070;-67